createdAt,value
2023-01-28T00:01:33.451Z,4.00
2023-01-28T00:04:01.709Z,3.80
2023-01-28T00:06:30.067Z,3.67
2023-01-28T00:08:58.393Z,4.23
2023-01-28T00:11:27.880Z,4.50
2023-01-28T00:13:56.470Z,5.00
2023-01-28T00:16:27.198Z,4.97
2023-01-28T00:18:55.780Z,4.20
2023-01-28T00:21:24.169Z,4.20
2023-01-28T00:23:55.033Z,4.20
2023-01-28T00:26:25.227Z,4.50
2023-01-28T00:28:55.035Z,4.77
2023-01-28T00:31:25.790Z,4.10
2023-01-28T00:33:56.627Z,4.20
2023-01-28T00:36:26.336Z,3.90
2023-01-28T00:38:56.040Z,4.30
2023-01-28T00:41:26.040Z,4.00
2023-01-28T00:43:56.126Z,4.07
2023-01-28T00:46:25.333Z,3.83
2023-01-28T00:48:54.489Z,3.53
2023-01-28T00:51:23.059Z,3.50
2023-01-28T00:53:51.517Z,4.00
2023-01-28T00:56:20.821Z,3.87
2023-01-28T00:58:49.404Z,3.80
2023-01-28T01:01:21.418Z,3.60
2023-01-28T01:03:57.558Z,3.80
2023-01-28T01:06:26.539Z,3.70
2023-01-28T01:08:54.764Z,3.97
2023-01-28T01:11:23.153Z,3.90
2023-01-28T01:13:52.647Z,4.13
2023-01-28T01:16:23.223Z,4.00
2023-01-28T01:18:52.738Z,4.27
2023-01-28T01:21:23.004Z,4.30
2023-01-28T01:23:51.923Z,4.20
2023-01-28T01:26:20.775Z,4.57
2023-01-28T01:28:49.179Z,4.30
2023-01-28T01:31:19.431Z,3.70
2023-01-28T01:33:51.612Z,3.70
2023-01-28T01:36:22.027Z,3.77
2023-01-28T01:38:54.666Z,4.30
2023-01-28T01:41:27.932Z,4.40
2023-01-28T01:44:00.838Z,3.53
2023-01-28T01:46:35.894Z,3.83
2023-01-28T01:49:16.792Z,3.67
2023-01-28T01:51:46.351Z,3.60
2023-01-28T01:54:15.563Z,3.57
2023-01-28T01:56:45.660Z,4.10
2023-01-28T01:59:16.967Z,3.97
2023-01-28T02:01:46.673Z,4.00
2023-01-28T02:04:22.978Z,3.93
2023-01-28T02:06:51.218Z,3.90
2023-01-28T02:09:26.142Z,3.93
2023-01-28T02:11:56.929Z,4.10
2023-01-28T02:14:31.699Z,4.23
2023-01-28T02:17:01.501Z,4.40
2023-01-28T02:19:38.947Z,4.60
2023-01-28T02:22:30.944Z,4.53
2023-01-28T02:25:33.741Z,4.67
2023-01-28T02:28:24.830Z,5.23
2023-01-28T02:30:58.968Z,4.50
2023-01-28T02:33:34.447Z,4.87
2023-01-28T02:36:11.957Z,4.13
2023-01-28T02:38:46.917Z,4.10
2023-01-28T02:41:21.792Z,4.20
2023-01-28T02:43:52.044Z,4.23
2023-01-28T02:46:41.605Z,4.43
2023-01-28T02:49:13.581Z,4.30
2023-01-28T02:51:52.917Z,4.50
2023-01-28T02:54:30.896Z,4.17
2023-01-28T02:57:08.303Z,4.33
2023-01-28T02:59:49.528Z,3.97
2023-01-28T03:02:24.560Z,3.60
2023-01-28T03:05:01.331Z,3.60
2023-01-28T03:07:32.443Z,3.53
2023-01-28T03:10:04.447Z,3.53
2023-01-28T03:12:51.165Z,3.60
2023-01-28T03:15:43.077Z,3.67
2023-01-28T03:18:36.350Z,3.67
2023-01-28T03:21:28.635Z,3.57
2023-01-28T03:24:18.632Z,3.43
2023-01-28T03:27:13.198Z,3.50
2023-01-28T03:30:02.153Z,3.67
2023-01-28T03:32:52.210Z,3.17
2023-01-28T03:35:41.983Z,3.60
2023-01-28T03:38:22.823Z,3.60
2023-01-28T03:40:53.581Z,3.70
2023-01-28T03:43:21.986Z,3.10
2023-01-28T03:45:51.391Z,3.13
2023-01-28T03:48:21.746Z,3.33
2023-01-28T03:50:50.086Z,3.03
2023-01-28T03:53:18.687Z,3.47
2023-01-28T03:55:50.555Z,3.30
2023-01-28T03:58:19.690Z,3.57
2023-01-28T04:00:48.449Z,4.00
2023-01-28T04:03:19.451Z,3.43
2023-01-28T04:06:02.362Z,3.37
2023-01-28T04:08:52.683Z,3.73
2023-01-28T04:11:29.842Z,3.70
2023-01-28T04:13:59.453Z,3.77
2023-01-28T04:16:32.613Z,3.77
2023-01-28T04:19:02.355Z,3.87
2023-01-28T04:21:32.160Z,3.80
2023-01-28T04:24:02.022Z,3.80
2023-01-28T04:26:30.862Z,3.60
2023-01-28T04:28:59.738Z,4.20
2023-01-28T04:31:28.270Z,4.13
2023-01-28T04:34:20.390Z,3.80
2023-01-28T04:37:18.995Z,4.17
2023-01-28T04:40:08.325Z,4.17
2023-01-28T04:42:44.499Z,4.20
2023-01-28T04:45:23.682Z,3.90
2023-01-28T04:48:11.786Z,4.17
2023-01-28T04:51:01.447Z,4.00
2023-01-28T04:53:38.027Z,4.03
2023-01-28T04:56:24.506Z,4.10
2023-01-28T04:58:52.819Z,4.00
2023-01-28T05:01:21.001Z,4.30
2023-01-28T05:03:49.660Z,4.40
2023-01-28T05:06:26.191Z,4.30
2023-01-28T05:09:02.304Z,3.80
2023-01-28T05:11:31.568Z,4.50
2023-01-28T05:14:04.277Z,4.33
2023-01-28T05:16:40.540Z,4.20
2023-01-28T05:19:09.542Z,4.20
2023-01-28T05:21:41.581Z,4.63
2023-01-28T05:24:24.441Z,4.07
2023-01-28T05:26:52.677Z,4.40
2023-01-28T05:29:21.316Z,4.20
2023-01-28T05:31:49.969Z,4.33
2023-01-28T05:34:18.961Z,4.43
2023-01-28T05:36:47.179Z,3.90
2023-01-28T05:39:34.639Z,4.27
2023-01-28T05:42:02.895Z,4.37
2023-01-28T05:44:33.689Z,4.57
2023-01-28T05:47:20.169Z,4.80
2023-01-28T05:49:50.962Z,4.57
2023-01-28T05:52:44.971Z,4.27
2023-01-28T05:55:28.003Z,4.90
2023-01-28T05:57:56.418Z,4.90
2023-01-28T06:00:27.392Z,4.83
2023-01-28T06:02:56.888Z,4.97
2023-01-28T06:05:25.623Z,5.43
2023-01-28T06:07:54.148Z,4.90
2023-01-28T06:10:22.476Z,5.10
2023-01-28T06:12:52.261Z,5.10
2023-01-28T06:15:46.522Z,5.90
2023-01-28T06:18:35.247Z,5.37
2023-01-28T06:21:05.332Z,4.93
2023-01-28T06:23:33.532Z,5.67
2023-01-28T06:26:02.336Z,5.27
2023-01-28T06:28:32.099Z,5.10
2023-01-28T06:31:00.596Z,5.10
2023-01-28T06:33:29.555Z,5.50
2023-01-28T06:35:57.898Z,5.20
2023-01-28T06:38:26.553Z,5.20
2023-01-28T06:40:56.323Z,6.67
2023-01-28T06:43:27.760Z,8.97
2023-01-28T06:45:57.583Z,8.40
2023-01-28T06:48:25.914Z,7.53
2023-01-28T06:50:55.219Z,6.77
2023-01-28T06:53:23.524Z,6.60
2023-01-28T06:55:51.740Z,5.80
2023-01-28T06:58:20.138Z,6.10
2023-01-28T07:00:48.617Z,5.77
2023-01-28T07:03:18.390Z,6.23
2023-01-28T07:05:46.666Z,6.30
2023-01-28T07:08:14.903Z,6.23
2023-01-28T07:10:43.183Z,6.00
2023-01-28T07:13:11.788Z,6.13
2023-01-28T07:15:40.056Z,5.90
2023-01-28T07:18:08.394Z,5.53
2023-01-28T07:20:38.157Z,5.30
2023-01-28T07:23:06.583Z,4.90
2023-01-28T07:25:34.859Z,4.87
2023-01-28T07:28:03.076Z,4.63
2023-01-28T07:30:31.479Z,5.23
2023-01-28T07:33:00.971Z,4.70
2023-01-28T07:35:29.754Z,5.10
2023-01-28T07:38:00.982Z,5.10
2023-01-28T07:40:29.879Z,5.00
2023-01-28T07:42:58.292Z,4.87
2023-01-28T07:45:30.502Z,6.63
2023-01-28T07:48:00.071Z,6.20
2023-01-28T07:50:30.080Z,5.63
2023-01-28T07:52:59.988Z,5.47
2023-01-28T07:55:31.163Z,5.00
2023-01-28T07:58:00.982Z,5.23
2023-01-28T08:00:31.699Z,4.87
2023-01-28T08:03:01.820Z,5.07
2023-01-28T08:05:39.207Z,5.43
2023-01-28T08:08:09.648Z,5.00
2023-01-28T08:10:38.905Z,5.23
2023-01-28T08:13:08.483Z,5.50
2023-01-28T08:15:36.872Z,5.73
2023-01-28T08:18:08.805Z,5.70
2023-01-28T08:20:37.538Z,6.23
2023-01-28T08:23:09.445Z,6.30
2023-01-28T08:25:37.777Z,6.27
2023-01-28T08:28:07.493Z,7.33
2023-01-28T08:30:37.922Z,6.83
2023-01-28T08:33:07.291Z,6.20
2023-01-28T08:35:36.367Z,6.13
2023-01-28T08:38:06.323Z,5.93
2023-01-28T08:40:36.724Z,6.67
2023-01-28T08:43:05.085Z,7.23
2023-01-28T08:45:33.937Z,6.67
2023-01-28T08:48:03.688Z,6.50
2023-01-28T08:50:34.017Z,6.60
2023-01-28T08:53:03.947Z,6.03
2023-01-28T08:55:32.897Z,6.40
2023-01-28T08:58:05.572Z,6.33
2023-01-28T09:00:35.079Z,6.80
2023-01-28T09:03:05.850Z,6.83
2023-01-28T09:05:36.298Z,7.33
2023-01-28T09:08:04.780Z,6.60
2023-01-28T09:10:32.970Z,6.77
2023-01-28T09:13:07.877Z,7.03
2023-01-28T09:15:37.738Z,7.90
2023-01-28T09:18:06.274Z,7.33
2023-01-28T09:20:34.842Z,6.80
2023-01-28T09:23:04.077Z,6.60
2023-01-28T09:25:32.549Z,6.70
2023-01-28T09:28:00.764Z,6.07
2023-01-28T09:30:30.611Z,7.83
2023-01-28T09:32:59.562Z,6.17
2023-01-28T09:35:27.789Z,5.90
2023-01-28T09:37:58.631Z,5.97
2023-01-28T09:40:34.263Z,5.57
2023-01-28T09:43:32.471Z,5.40
2023-01-28T09:46:05.956Z,5.97
2023-01-28T09:48:38.213Z,5.47
2023-01-28T09:51:11.400Z,5.23
2023-01-28T09:53:44.490Z,5.93
2023-01-28T09:56:17.055Z,5.87
2023-01-28T09:58:45.510Z,6.33
2023-01-28T10:01:36.056Z,6.63
2023-01-28T10:04:13.287Z,6.60
2023-01-28T10:06:52.100Z,6.10
2023-01-28T10:09:28.885Z,6.17
2023-01-28T10:12:13.086Z,7.97
2023-01-28T10:14:52.704Z,7.20
2023-01-28T10:17:27.138Z,6.43
2023-01-28T10:19:59.806Z,6.40
2023-01-28T10:22:32.956Z,5.93
2023-01-28T10:25:07.244Z,5.40
2023-01-28T10:27:38.366Z,5.53
2023-01-28T10:30:18.813Z,5.70
2023-01-28T10:32:53.655Z,5.50
2023-01-28T10:35:22.724Z,5.73
2023-01-28T10:37:51.371Z,5.60
2023-01-28T10:40:20.374Z,5.17
2023-01-28T10:42:48.844Z,5.83
2023-01-28T10:45:21.468Z,5.53
2023-01-28T10:47:55.576Z,5.80
2023-01-28T10:50:25.829Z,6.27
2023-01-28T10:52:55.594Z,6.17
2023-01-28T10:55:25.302Z,5.60
2023-01-28T10:57:54.557Z,5.40
2023-01-28T11:00:30.833Z,5.10
2023-01-28T11:03:01.471Z,5.10
2023-01-28T11:05:31.552Z,5.17
2023-01-28T11:08:13.613Z,5.10
2023-01-28T11:10:42.653Z,5.73
2023-01-28T11:13:17.932Z,5.63
2023-01-28T11:15:50.657Z,5.10
2023-01-28T11:18:25.529Z,5.70
2023-01-28T11:20:57.135Z,5.47
2023-01-28T11:23:28.585Z,5.10
2023-01-28T11:26:06.891Z,5.67
2023-01-28T11:28:35.976Z,5.40
2023-01-28T11:31:05.558Z,5.20
2023-01-28T11:33:39.531Z,5.10
2023-01-28T11:36:13.760Z,5.37
2023-01-28T11:38:51.628Z,4.90
2023-01-28T11:41:28.292Z,5.40
2023-01-28T11:43:59.592Z,4.90
2023-01-28T11:46:51.094Z,4.80
2023-01-28T11:49:30.866Z,4.87
2023-01-28T11:52:08.715Z,4.93
2023-01-28T11:54:48.639Z,4.70
2023-01-28T11:57:25.393Z,5.00
2023-01-28T12:00:23.861Z,4.80
2023-01-28T12:02:58.839Z,4.60
2023-01-28T12:05:45.431Z,4.47
2023-01-28T12:08:23.240Z,4.87
2023-01-28T12:11:07.810Z,4.27
2023-01-28T12:13:47.629Z,4.40
2023-01-28T12:16:38.120Z,4.27
2023-01-28T12:19:21.937Z,4.60
2023-01-28T12:22:16.360Z,4.73
2023-01-28T12:24:56.877Z,4.17
2023-01-28T12:27:38.474Z,4.07
2023-01-28T12:30:20.352Z,4.07
2023-01-28T12:32:59.379Z,4.03
2023-01-28T12:35:56.398Z,4.10
2023-01-28T12:38:35.003Z,3.73
2023-01-28T12:41:08.729Z,3.87
2023-01-28T12:43:47.304Z,3.70
2023-01-28T12:46:26.285Z,4.20
2023-01-28T12:49:00.046Z,3.80
2023-01-28T12:51:34.081Z,3.80
2023-01-28T12:54:12.773Z,4.20
2023-01-28T12:56:45.581Z,4.53
2023-01-28T12:59:17.989Z,4.60
2023-01-28T13:01:52.955Z,5.13
2023-01-28T13:04:32.264Z,4.47
2023-01-28T13:07:05.304Z,4.23
2023-01-28T13:09:39.509Z,3.83
2023-01-28T13:12:08.413Z,4.13
2023-01-28T13:14:36.965Z,4.40
2023-01-28T13:17:12.385Z,4.20
2023-01-28T13:19:42.632Z,4.47
2023-01-28T13:22:27.688Z,4.43
2023-01-28T13:24:57.504Z,4.30
2023-01-28T13:27:27.259Z,3.80
2023-01-28T13:30:08.384Z,4.00
2023-01-28T13:32:37.311Z,4.10
2023-01-28T13:35:08.987Z,4.00
2023-01-28T13:37:40.181Z,3.77
2023-01-28T13:40:25.027Z,3.50
2023-01-28T13:43:02.750Z,3.50
2023-01-28T13:45:31.618Z,3.77
2023-01-28T13:48:06.924Z,3.30
2023-01-28T13:50:40.950Z,3.10
2023-01-28T13:53:23.476Z,3.40
2023-01-28T13:55:56.579Z,3.30
2023-01-28T13:58:47.134Z,3.20
2023-01-28T14:01:50.803Z,3.40
2023-01-28T14:04:50.214Z,3.40
2023-01-28T14:07:52.163Z,3.73
2023-01-28T14:10:50.067Z,4.60
2023-01-28T14:13:34.941Z,3.70
2023-01-28T14:16:20.946Z,3.47
2023-01-28T14:18:50.879Z,3.47
2023-01-28T14:21:22.010Z,3.77
2023-01-28T14:23:52.403Z,5.27
2023-01-28T14:26:40.799Z,7.83
2023-01-28T14:29:29.075Z,5.40
2023-01-28T14:31:57.512Z,4.00
2023-01-28T14:34:30.576Z,3.90
2023-01-28T14:37:02.693Z,4.40
2023-01-28T14:39:33.356Z,5.60
2023-01-28T14:42:03.591Z,5.53
2023-01-28T14:44:35.703Z,4.20
2023-01-28T14:47:17.203Z,4.20
2023-01-28T14:49:59.270Z,3.67
2023-01-28T14:52:46.316Z,3.93
2023-01-28T14:55:28.799Z,3.53
2023-01-28T14:57:59.722Z,5.03
2023-01-28T15:00:31.576Z,4.87
2023-01-28T15:02:59.949Z,3.70
2023-01-28T15:05:29.967Z,3.97
2023-01-28T15:07:58.467Z,4.37
2023-01-28T15:10:29.734Z,4.53
2023-01-28T15:13:01.664Z,5.17
2023-01-28T15:15:34.873Z,4.50
2023-01-28T15:18:06.791Z,4.33
2023-01-28T15:20:35.158Z,3.67
2023-01-28T15:23:07.506Z,3.87
2023-01-28T15:25:35.877Z,3.80
2023-01-28T15:28:04.188Z,3.50
2023-01-28T15:30:33.979Z,3.60
2023-01-28T15:33:05.419Z,3.90
2023-01-28T15:35:34.593Z,4.03
2023-01-28T15:38:04.558Z,4.03
2023-01-28T15:40:43.018Z,3.70
2023-01-28T15:43:19.259Z,4.00
2023-01-28T15:45:50.724Z,4.27
2023-01-28T15:48:19.455Z,4.03
2023-01-28T15:50:48.527Z,3.70
2023-01-28T15:53:16.836Z,3.90
2023-01-28T15:55:46.036Z,3.93
2023-01-28T15:58:19.493Z,4.17
2023-01-28T16:00:50.471Z,3.77
2023-01-28T16:03:22.035Z,3.70
2023-01-28T16:06:02.192Z,3.37
2023-01-28T16:08:39.364Z,3.60
2023-01-28T16:11:09.247Z,4.30
2023-01-28T16:13:43.691Z,4.43
2023-01-28T16:16:13.918Z,5.13
2023-01-28T16:18:47.470Z,5.80
2023-01-28T16:21:23.936Z,4.93
2023-01-28T16:23:53.974Z,3.53
2023-01-28T16:26:24.614Z,9.40
2023-01-28T16:28:53.013Z,11.53
2023-01-28T16:31:22.962Z,6.50
2023-01-28T16:33:51.175Z,4.40
2023-01-28T16:36:19.790Z,5.03
2023-01-28T16:38:48.175Z,4.33
2023-01-28T16:41:24.991Z,4.20
2023-01-28T16:43:53.229Z,3.70
2023-01-28T16:46:22.776Z,4.50
2023-01-28T16:48:50.939Z,4.30
2023-01-28T16:51:20.923Z,4.17
2023-01-28T16:53:50.722Z,5.10
2023-01-28T16:56:45.314Z,5.27
2023-01-28T16:59:11.586Z,5.93
2023-01-28T17:01:41.345Z,5.97
2023-01-28T17:04:11.951Z,8.77
2023-01-28T17:06:42.971Z,8.07
2023-01-28T17:09:13.022Z,7.73
2023-01-28T17:11:41.818Z,10.13
2023-01-28T17:14:10.719Z,6.20
2023-01-28T17:16:40.518Z,6.20
2023-01-28T17:19:08.740Z,8.40
2023-01-28T17:21:37.818Z,7.87
2023-01-28T17:24:06.810Z,5.40
2023-01-28T17:26:36.567Z,5.10
2023-01-28T17:29:06.003Z,5.73
2023-01-28T17:31:34.861Z,6.20
2023-01-28T17:34:06.951Z,4.30
2023-01-28T17:36:35.422Z,4.40
2023-01-28T17:39:03.809Z,4.63
2023-01-28T17:41:32.205Z,7.03
2023-01-28T17:44:00.752Z,8.57
2023-01-28T17:46:28.900Z,8.90
2023-01-28T17:48:57.249Z,10.70
2023-01-28T17:51:26.783Z,9.50
2023-01-28T17:53:55.044Z,18.40
2023-01-28T17:56:26.604Z,20.53
2023-01-28T17:58:56.976Z,16.23
2023-01-28T18:01:27.839Z,8.97
2023-01-28T18:03:56.608Z,6.13
2023-01-28T18:06:26.165Z,6.60
2023-01-28T18:08:55.071Z,6.03
2023-01-28T18:11:23.261Z,5.93
2023-01-28T18:13:51.513Z,6.13
2023-01-28T18:16:20.791Z,6.33
2023-01-28T18:18:50.357Z,5.57
2023-01-28T18:21:24.138Z,6.60
2023-01-28T18:23:56.759Z,6.47
2023-01-28T18:26:24.989Z,6.00
2023-01-28T18:28:53.165Z,5.90
2023-01-28T18:31:21.788Z,6.00
2023-01-28T18:33:50.314Z,6.07
2023-01-28T18:36:18.569Z,5.90
2023-01-28T18:38:46.940Z,6.03
2023-01-28T18:41:16.807Z,6.43
2023-01-28T18:43:47.566Z,5.87
2023-01-28T18:46:18.139Z,4.63
2023-01-28T18:48:46.445Z,5.43
2023-01-28T18:51:28.780Z,5.83
2023-01-28T18:53:59.053Z,5.83
2023-01-28T18:56:29.163Z,5.90
2023-01-28T18:58:58.588Z,5.50
2023-01-28T19:01:27.451Z,5.30
2023-01-28T19:03:57.609Z,5.63
2023-01-28T19:06:26.600Z,7.40
2023-01-28T19:08:56.054Z,7.37
2023-01-28T19:11:26.092Z,7.30
2023-01-28T19:13:55.842Z,6.63
2023-01-28T19:16:24.189Z,6.57
2023-01-28T19:18:54.196Z,7.93
2023-01-28T19:21:22.908Z,6.00
2023-01-28T19:23:56.626Z,9.73
2023-01-28T19:26:25.660Z,8.90
2023-01-28T19:28:56.193Z,9.83
2023-01-28T19:31:25.843Z,8.87
2023-01-28T19:34:01.033Z,7.40
2023-01-28T19:36:32.587Z,7.90
2023-01-28T19:39:01.979Z,8.90
2023-01-28T19:41:30.624Z,12.23
2023-01-28T19:44:00.537Z,14.33
2023-01-28T19:46:29.292Z,7.73
2023-01-28T19:48:57.611Z,8.70
2023-01-28T19:51:26.476Z,11.87
2023-01-28T19:53:56.140Z,13.07
2023-01-28T19:56:25.972Z,11.10
2023-01-28T19:58:55.640Z,7.83
2023-01-28T20:01:30.208Z,9.30
2023-01-28T20:04:00.559Z,11.27
2023-01-28T20:06:30.367Z,9.60
2023-01-28T20:09:01.412Z,8.07
2023-01-28T20:11:29.883Z,10.47
2023-01-28T20:13:59.830Z,8.90
2023-01-28T20:16:31.010Z,7.90
2023-01-28T20:19:01.548Z,8.10
2023-01-28T20:21:30.736Z,6.57
2023-01-28T20:24:00.689Z,7.83
2023-01-28T20:26:31.284Z,6.20
2023-01-28T20:29:01.631Z,6.17
2023-01-28T20:31:32.720Z,5.37
2023-01-28T20:34:01.555Z,6.13
2023-01-28T20:36:29.811Z,5.00
2023-01-28T20:38:58.451Z,5.37
2023-01-28T20:41:27.894Z,5.37
2023-01-28T20:43:57.154Z,6.10
2023-01-28T20:46:27.683Z,5.67
2023-01-28T20:48:58.992Z,5.60
2023-01-28T20:51:29.950Z,5.80
2023-01-28T20:54:00.514Z,5.57
2023-01-28T20:56:30.041Z,5.60
2023-01-28T20:59:00.027Z,7.07
2023-01-28T21:01:30.227Z,5.03
2023-01-28T21:03:59.970Z,6.60
2023-01-28T21:06:28.748Z,5.80
2023-01-28T21:08:57.329Z,5.10
2023-01-28T21:11:27.219Z,5.00
2023-01-28T21:13:56.105Z,6.17
2023-01-28T21:16:24.861Z,6.03
2023-01-28T21:18:53.160Z,5.80
2023-01-28T21:21:24.469Z,5.93
2023-01-28T21:23:54.726Z,5.33
2023-01-28T21:26:23.155Z,5.33
2023-01-28T21:28:51.574Z,4.77
2023-01-28T21:31:21.421Z,5.47
2023-01-28T21:33:50.354Z,5.70
2023-01-28T21:36:19.422Z,5.27
2023-01-28T21:38:53.988Z,5.47
2023-01-28T21:41:22.547Z,5.47
2023-01-28T21:43:53.335Z,5.50
2023-01-28T21:46:21.788Z,5.40
2023-01-28T21:48:50.335Z,4.63
2023-01-28T21:51:37.883Z,4.30
2023-01-28T21:54:10.966Z,5.43
2023-01-28T21:56:39.312Z,4.73
2023-01-28T21:59:25.375Z,4.90
2023-01-28T22:01:53.673Z,4.90
2023-01-28T22:04:22.291Z,5.10
2023-01-28T22:06:50.496Z,5.13
2023-01-28T22:09:20.017Z,5.10
2023-01-28T22:11:48.294Z,5.53
2023-01-28T22:14:17.121Z,5.33
2023-01-28T22:16:45.569Z,5.63
2023-01-28T22:19:14.845Z,4.93
2023-01-28T22:21:45.808Z,6.87
2023-01-28T22:24:16.052Z,6.20
2023-01-28T22:26:46.506Z,5.87
2023-01-28T22:29:16.031Z,5.83
2023-01-28T22:31:46.744Z,6.27
2023-01-28T22:34:15.091Z,6.10
2023-01-28T22:36:44.009Z,6.77
2023-01-28T22:39:15.450Z,5.97
2023-01-28T22:41:45.885Z,5.40
2023-01-28T22:44:14.372Z,5.30
2023-01-28T22:46:42.873Z,5.20
2023-01-28T22:49:12.315Z,5.00
2023-01-28T22:51:40.467Z,5.23
2023-01-28T22:54:09.166Z,4.80
2023-01-28T22:56:37.435Z,4.80
2023-01-28T22:59:07.429Z,5.00
2023-01-28T23:01:36.740Z,5.43
2023-01-28T23:04:04.981Z,5.23
2023-01-28T23:06:33.780Z,6.20
2023-01-28T23:09:02.109Z,5.13
2023-01-28T23:11:30.421Z,4.67
2023-01-28T23:14:18.905Z,4.60
2023-01-28T23:17:06.461Z,4.83
2023-01-28T23:19:52.676Z,4.60
2023-01-28T23:22:41.647Z,5.27
2023-01-28T23:25:10.912Z,5.20
2023-01-28T23:27:39.248Z,5.67
2023-01-28T23:30:10.075Z,5.27
2023-01-28T23:32:41.211Z,5.20
2023-01-28T23:35:10.511Z,5.20
2023-01-28T23:37:39.199Z,4.93
2023-01-28T23:40:08.653Z,5.33
2023-01-28T23:42:36.876Z,5.10
2023-01-28T23:45:05.928Z,5.00
2023-01-28T23:47:34.304Z,5.10
2023-01-28T23:50:04.389Z,4.97
2023-01-28T23:52:32.663Z,5.20
2023-01-28T23:55:00.885Z,5.13
2023-01-28T23:57:29.153Z,5.00
2023-01-28T23:59:57.427Z,5.50
